sensor_id;sensor_type;location;lat;lon;timestamp;temperature;humidity
1878;DHT22;939;51.426;6.972;2023-04-01T00:02:07;10.40;99.90
1878;DHT22;939;51.426;6.972;2023-04-01T00:04:35;10.40;99.90
1878;DHT22;939;51.426;6.972;2023-04-01T00:07:02;10.40;99.90
1878;DHT22;939;51.426;6.972;2023-04-01T00:09:29;10.40;99.90
1878;DHT22;939;51.426;6.972;2023-04-01T00:11:57;10.50;99.90
1878;DHT22;939;51.426;6.972;2023-04-01T00:14:23;10.40;99.90
1878;DHT22;939;51.426;6.972;2023-04-01T00:16:50;10.30;99.90
1878;DHT22;939;51.426;6.972;2023-04-01T00:19:17;10.30;99.90
1878;DHT22;939;51.426;6.972;2023-04-01T00:21:48;10.40;99.90
1878;DHT22;939;51.426;6.972;2023-04-01T00:24:20;10.60;99.90
1878;DHT22;939;51.426;6.972;2023-04-01T00:26:47;10.60;99.90
1878;DHT22;939;51.426;6.972;2023-04-01T00:29:15;10.70;99.90
1878;DHT22;939;51.426;6.972;2023-04-01T00:31:45;10.50;99.90
1878;DHT22;939;51.426;6.972;2023-04-01T00:34:13;10.50;99.90
1878;DHT22;939;51.426;6.972;2023-04-01T00:36:48;10.50;99.90
1878;DHT22;939;51.426;6.972;2023-04-01T00:39:15;10.50;99.90
1878;DHT22;939;51.426;6.972;2023-04-01T00:41:43;10.50;99.90
1878;DHT22;939;51.426;6.972;2023-04-01T00:44:20;10.50;99.90
1878;DHT22;939;51.426;6.972;2023-04-01T00:46:49;10.50;99.90
1878;DHT22;939;51.426;6.972;2023-04-01T00:49:20;10.40;99.90
1878;DHT22;939;51.426;6.972;2023-04-01T00:51:51;10.50;99.90
1878;DHT22;939;51.426;6.972;2023-04-01T00:54:20;10.40;99.90
1878;DHT22;939;51.426;6.972;2023-04-01T00:56:53;10.40;99.90
1878;DHT22;939;51.426;6.972;2023-04-01T00:59:23;10.40;99.90
1878;DHT22;939;51.426;6.972;2023-04-01T01:01:54;10.30;99.90
1878;DHT22;939;51.426;6.972;2023-04-01T01:04:24;10.40;99.90
1878;DHT22;939;51.426;6.972;2023-04-01T01:07:03;10.40;99.90
1878;DHT22;939;51.426;6.972;2023-04-01T01:09:43;10.40;99.90
1878;DHT22;939;51.426;6.972;2023-04-01T01:12:14;10.50;99.90
1878;DHT22;939;51.426;6.972;2023-04-01T01:14:52;10.50;99.90
1878;DHT22;939;51.426;6.972;2023-04-01T01:17:32;10.40;99.90
1878;DHT22;939;51.426;6.972;2023-04-01T01:26:15;10.40;99.90
1878;DHT22;939;51.426;6.972;2023-04-01T01:29:00;10.30;99.90
1878;DHT22;939;51.426;6.972;2023-04-01T01:31:40;10.40;99.90
1878;DHT22;939;51.426;6.972;2023-04-01T01:34:16;10.40;99.90
1878;DHT22;939;51.426;6.972;2023-04-01T01:36:50;10.40;99.90
1878;DHT22;939;51.426;6.972;2023-04-01T01:39:27;10.50;99.90
1878;DHT22;939;51.426;6.972;2023-04-01T01:42:06;10.50;99.90
1878;DHT22;939;51.426;6.972;2023-04-01T01:44:42;10.40;99.90
1878;DHT22;939;51.426;6.972;2023-04-01T01:47:41;10.40;99.90
1878;DHT22;939;51.426;6.972;2023-04-01T01:50:11;10.30;99.90
1878;DHT22;939;51.426;6.972;2023-04-01T01:52:39;10.30;99.90
1878;DHT22;939;51.426;6.972;2023-04-01T01:55:23;10.30;99.90
1878;DHT22;939;51.426;6.972;2023-04-01T01:57:59;10.20;99.90
1878;DHT22;939;51.426;6.972;2023-04-01T02:00:33;10.20;99.90
1878;DHT22;939;51.426;6.972;2023-04-01T02:03:07;10.30;99.90
1878;DHT22;939;51.426;6.972;2023-04-01T02:05:37;10.40;99.90
1878;DHT22;939;51.426;6.972;2023-04-01T02:08:12;10.50;99.90
1878;DHT22;939;51.426;6.972;2023-04-01T02:11:08;10.30;99.90
1878;DHT22;939;51.426;6.972;2023-04-01T02:13:54;10.30;99.90
1878;DHT22;939;51.426;6.972;2023-04-01T02:16:31;10.30;99.90
1878;DHT22;939;51.426;6.972;2023-04-01T02:19:12;10.40;99.90
1878;DHT22;939;51.426;6.972;2023-04-01T02:21:42;10.30;99.90
1878;DHT22;939;51.426;6.972;2023-04-01T02:24:18;10.20;99.90
1878;DHT22;939;51.426;6.972;2023-04-01T02:26:50;10.20;99.90
1878;DHT22;939;51.426;6.972;2023-04-01T02:29:34;10.30;99.90
1878;DHT22;939;51.426;6.972;2023-04-01T02:32:21;10.30;99.90
1878;DHT22;939;51.426;6.972;2023-04-01T02:34:50;10.40;99.90
1878;DHT22;939;51.426;6.972;2023-04-01T02:43:33;10.40;99.90
1878;DHT22;939;51.426;6.972;2023-04-01T02:46:32;10.40;99.90
1878;DHT22;939;51.426;6.972;2023-04-01T02:49:02;10.30;99.90
1878;DHT22;939;51.426;6.972;2023-04-01T02:51:30;10.30;99.90
1878;DHT22;939;51.426;6.972;2023-04-01T02:53:57;10.40;99.90
1878;DHT22;939;51.426;6.972;2023-04-01T02:56:23;10.40;99.90
1878;DHT22;939;51.426;6.972;2023-04-01T02:58:59;10.40;99.90
1878;DHT22;939;51.426;6.972;2023-04-01T03:01:26;10.50;99.90
1878;DHT22;939;51.426;6.972;2023-04-01T03:03:53;10.50;99.90
1878;DHT22;939;51.426;6.972;2023-04-01T03:06:20;10.50;99.90
1878;DHT22;939;51.426;6.972;2023-04-01T03:08:47;10.50;99.90
1878;DHT22;939;51.426;6.972;2023-04-01T03:11:15;10.50;99.90
1878;DHT22;939;51.426;6.972;2023-04-01T03:13:45;10.50;99.90
1878;DHT22;939;51.426;6.972;2023-04-01T03:16:13;10.40;99.90
1878;DHT22;939;51.426;6.972;2023-04-01T03:18:40;10.40;99.90
1878;DHT22;939;51.426;6.972;2023-04-01T03:21:15;10.40;99.90
1878;DHT22;939;51.426;6.972;2023-04-01T03:23:42;10.50;99.90
1878;DHT22;939;51.426;6.972;2023-04-01T03:26:09;10.40;99.90
1878;DHT22;939;51.426;6.972;2023-04-01T03:28:39;10.40;99.90
1878;DHT22;939;51.426;6.972;2023-04-01T03:31:07;10.30;99.90
1878;DHT22;939;51.426;6.972;2023-04-01T03:33:39;10.30;99.90
1878;DHT22;939;51.426;6.972;2023-04-01T03:36:06;10.40;99.90
1878;DHT22;939;51.426;6.972;2023-04-01T03:38:33;10.30;99.90
1878;DHT22;939;51.426;6.972;2023-04-01T03:41:03;10.30;99.90
1878;DHT22;939;51.426;6.972;2023-04-01T03:43:32;10.30;99.90
1878;DHT22;939;51.426;6.972;2023-04-01T03:45:59;10.40;99.90
1878;DHT22;939;51.426;6.972;2023-04-01T03:48:26;10.40;99.90
1878;DHT22;939;51.426;6.972;2023-04-01T03:51:06;10.30;99.90
1878;DHT22;939;51.426;6.972;2023-04-01T03:53:43;10.30;99.90
1878;DHT22;939;51.426;6.972;2023-04-01T03:56:33;10.30;99.90
1878;DHT22;939;51.426;6.972;2023-04-01T03:59:03;10.40;99.90
1878;DHT22;939;51.426;6.972;2023-04-01T04:01:35;10.30;99.90
1878;DHT22;939;51.426;6.972;2023-04-01T04:04:10;10.40;99.90
1878;DHT22;939;51.426;6.972;2023-04-01T04:06:38;10.40;99.90
1878;DHT22;939;51.426;6.972;2023-04-01T04:09:05;10.40;99.90
1878;DHT22;939;51.426;6.972;2023-04-01T04:11:34;10.30;99.90
1878;DHT22;939;51.426;6.972;2023-04-01T04:14:03;10.30;99.90
1878;DHT22;939;51.426;6.972;2023-04-01T04:16:30;10.30;99.90
1878;DHT22;939;51.426;6.972;2023-04-01T04:18:59;10.40;99.90
1878;DHT22;939;51.426;6.972;2023-04-01T04:21:29;10.30;99.90
1878;DHT22;939;51.426;6.972;2023-04-01T04:23:58;10.40;99.90
1878;DHT22;939;51.426;6.972;2023-04-01T04:26:26;10.40;99.90
1878;DHT22;939;51.426;6.972;2023-04-01T04:28:54;10.40;99.90
1878;DHT22;939;51.426;6.972;2023-04-01T04:31:22;10.40;99.90
1878;DHT22;939;51.426;6.972;2023-04-01T04:33:52;10.40;99.90
1878;DHT22;939;51.426;6.972;2023-04-01T04:36:22;10.40;99.90
1878;DHT22;939;51.426;6.972;2023-04-01T04:38:54;10.40;99.90
1878;DHT22;939;51.426;6.972;2023-04-01T04:41:36;10.40;99.90
1878;DHT22;939;51.426;6.972;2023-04-01T04:44:04;10.50;99.90
1878;DHT22;939;51.426;6.972;2023-04-01T04:46:33;10.40;99.90
1878;DHT22;939;51.426;6.972;2023-04-01T04:49:02;10.50;99.90
1878;DHT22;939;51.426;6.972;2023-04-01T04:51:31;10.60;99.90
1878;DHT22;939;51.426;6.972;2023-04-01T04:54:05;10.50;99.90
1878;DHT22;939;51.426;6.972;2023-04-01T04:56:33;10.50;99.90
1878;DHT22;939;51.426;6.972;2023-04-01T04:59:01;10.50;99.90
1878;DHT22;939;51.426;6.972;2023-04-01T05:01:34;10.50;99.90
1878;DHT22;939;51.426;6.972;2023-04-01T05:04:09;10.50;99.90
1878;DHT22;939;51.426;6.972;2023-04-01T05:06:43;10.50;99.90
1878;DHT22;939;51.426;6.972;2023-04-01T05:09:11;10.40;99.90
1878;DHT22;939;51.426;6.972;2023-04-01T05:11:48;10.50;99.90
1878;DHT22;939;51.426;6.972;2023-04-01T05:14:18;10.50;99.90
1878;DHT22;939;51.426;6.972;2023-04-01T05:16:55;10.50;99.90
1878;DHT22;939;51.426;6.972;2023-04-01T05:19:27;10.50;99.90
1878;DHT22;939;51.426;6.972;2023-04-01T05:21:54;10.60;99.90
1878;DHT22;939;51.426;6.972;2023-04-01T05:24:21;10.40;99.90
1878;DHT22;939;51.426;6.972;2023-04-01T05:27:14;10.40;99.90
1878;DHT22;939;51.426;6.972;2023-04-01T05:30:25;10.50;99.90
1878;DHT22;939;51.426;6.972;2023-04-01T05:33:11;10.60;99.90
1878;DHT22;939;51.426;6.972;2023-04-01T05:35:42;10.50;99.90
1878;DHT22;939;51.426;6.972;2023-04-01T05:38:13;10.50;99.90
1878;DHT22;939;51.426;6.972;2023-04-01T05:40:58;10.40;99.90
1878;DHT22;939;51.426;6.972;2023-04-01T05:43:37;10.40;99.90
1878;DHT22;939;51.426;6.972;2023-04-01T05:49:14;10.50;99.90
1878;DHT22;939;51.426;6.972;2023-04-01T05:51:43;10.60;99.90
1878;DHT22;939;51.426;6.972;2023-04-01T05:54:16;10.60;99.90
1878;DHT22;939;51.426;6.972;2023-04-01T05:56:42;10.60;99.90
1878;DHT22;939;51.426;6.972;2023-04-01T05:59:18;10.50;99.90
1878;DHT22;939;51.426;6.972;2023-04-01T06:01:51;10.50;99.90
1878;DHT22;939;51.426;6.972;2023-04-01T06:04:21;10.40;99.90
1878;DHT22;939;51.426;6.972;2023-04-01T06:06:56;10.40;99.90
1878;DHT22;939;51.426;6.972;2023-04-01T06:09:27;10.40;99.90
1878;DHT22;939;51.426;6.972;2023-04-01T06:12:19;10.50;99.90
1878;DHT22;939;51.426;6.972;2023-04-01T06:15:32;10.50;99.90
1878;DHT22;939;51.426;6.972;2023-04-01T06:25:01;10.50;99.90
1878;DHT22;939;51.426;6.972;2023-04-01T06:28:14;10.40;99.90
1878;DHT22;939;51.426;6.972;2023-04-01T06:31:08;10.40;99.90
1878;DHT22;939;51.426;6.972;2023-04-01T06:37:43;10.40;99.90
1878;DHT22;939;51.426;6.972;2023-04-01T07:32:59;10.60;99.90
1878;DHT22;939;51.426;6.972;2023-04-01T07:38:18;10.60;99.90
1878;DHT22;939;51.426;6.972;2023-04-01T07:45:41;10.50;99.90
1878;DHT22;939;51.426;6.972;2023-04-01T07:52:34;10.70;99.90
1878;DHT22;939;51.426;6.972;2023-04-01T07:55:21;10.70;99.90
1878;DHT22;939;51.426;6.972;2023-04-01T08:01:51;10.70;99.90
1878;DHT22;939;51.426;6.972;2023-04-01T08:09:05;10.60;99.90
1878;DHT22;939;51.426;6.972;2023-04-01T08:11:55;10.60;99.90
1878;DHT22;939;51.426;6.972;2023-04-01T08:14:41;10.60;99.90
1878;DHT22;939;51.426;6.972;2023-04-01T08:17:20;10.70;99.90
1878;DHT22;939;51.426;6.972;2023-04-01T08:20:44;10.70;99.90
1878;DHT22;939;51.426;6.972;2023-04-01T08:23:27;10.70;99.90
1878;DHT22;939;51.426;6.972;2023-04-01T08:26:13;10.70;99.90
1878;DHT22;939;51.426;6.972;2023-04-01T08:28:59;10.70;99.90
1878;DHT22;939;51.426;6.972;2023-04-01T08:31:48;10.60;99.90
1878;DHT22;939;51.426;6.972;2023-04-01T08:34:22;10.70;99.90
1878;DHT22;939;51.426;6.972;2023-04-01T08:36:57;10.60;99.90
1878;DHT22;939;51.426;6.972;2023-04-01T08:39:49;10.70;99.90
1878;DHT22;939;51.426;6.972;2023-04-01T08:46:19;10.80;99.90
1878;DHT22;939;51.426;6.972;2023-04-01T08:49:12;10.80;99.90
1878;DHT22;939;51.426;6.972;2023-04-01T08:58:18;10.80;99.90
1878;DHT22;939;51.426;6.972;2023-04-01T09:00:52;10.80;99.90
1878;DHT22;939;51.426;6.972;2023-04-01T09:03:37;10.70;99.90
1878;DHT22;939;51.426;6.972;2023-04-01T09:06:33;10.70;99.90
1878;DHT22;939;51.426;6.972;2023-04-01T09:09:32;10.60;99.90
1878;DHT22;939;51.426;6.972;2023-04-01T09:12:36;10.60;99.90
1878;DHT22;939;51.426;6.972;2023-04-01T09:22:05;10.60;99.90
1878;DHT22;939;51.426;6.972;2023-04-01T09:25:04;10.60;99.90
1878;DHT22;939;51.426;6.972;2023-04-01T09:27:45;10.70;99.90
1878;DHT22;939;51.426;6.972;2023-04-01T09:37:14;10.90;99.90
1878;DHT22;939;51.426;6.972;2023-04-01T09:39:59;10.90;99.90
1878;DHT22;939;51.426;6.972;2023-04-01T09:42:49;10.90;99.90
1878;DHT22;939;51.426;6.972;2023-04-01T09:46:03;10.90;99.90
1878;DHT22;939;51.426;6.972;2023-04-01T09:49:11;10.90;99.90
1878;DHT22;939;51.426;6.972;2023-04-01T09:55:13;11.00;99.90
1878;DHT22;939;51.426;6.972;2023-04-01T09:58:19;11.00;99.90
1878;DHT22;939;51.426;6.972;2023-04-01T10:01:37;11.00;99.90
1878;DHT22;939;51.426;6.972;2023-04-01T10:07:32;11.20;99.90
1878;DHT22;939;51.426;6.972;2023-04-01T10:18:26;11.20;99.90
1878;DHT22;939;51.426;6.972;2023-04-01T10:21:29;11.20;99.90
1878;DHT22;939;51.426;6.972;2023-04-01T10:24:48;11.20;99.90
1878;DHT22;939;51.426;6.972;2023-04-01T10:27:40;11.20;99.90
1878;DHT22;939;51.426;6.972;2023-04-01T10:34:21;11.40;99.90
1878;DHT22;939;51.426;6.972;2023-04-01T10:37:00;11.30;99.90
1878;DHT22;939;51.426;6.972;2023-04-01T10:40:12;11.40;99.90
1878;DHT22;939;51.426;6.972;2023-04-01T10:49:57;11.50;99.90
1878;DHT22;939;51.426;6.972;2023-04-01T10:53:17;11.40;99.90
1878;DHT22;939;51.426;6.972;2023-04-01T10:56:32;11.40;99.90
1878;DHT22;939;51.426;6.972;2023-04-01T11:02:21;11.40;99.90
1878;DHT22;939;51.426;6.972;2023-04-01T11:09:33;11.20;99.90
1878;DHT22;939;51.426;6.972;2023-04-01T11:16:13;11.20;99.90
1878;DHT22;939;51.426;6.972;2023-04-01T11:23:00;11.20;99.90
1878;DHT22;939;51.426;6.972;2023-04-01T11:26:07;11.20;99.90
1878;DHT22;939;51.426;6.972;2023-04-01T11:29:11;11.30;99.90
1878;DHT22;939;51.426;6.972;2023-04-01T11:32:01;11.30;99.90
1878;DHT22;939;51.426;6.972;2023-04-01T11:35:08;11.30;99.90
1878;DHT22;939;51.426;6.972;2023-04-01T11:37:46;11.40;99.90
1878;DHT22;939;51.426;6.972;2023-04-01T11:40:31;11.40;99.90
1878;DHT22;939;51.426;6.972;2023-04-01T11:43:11;11.40;99.90
1878;DHT22;939;51.426;6.972;2023-04-01T11:45:45;11.50;99.90
1878;DHT22;939;51.426;6.972;2023-04-01T11:48:39;11.30;99.90
1878;DHT22;939;51.426;6.972;2023-04-01T11:51:43;11.40;99.90
1878;DHT22;939;51.426;6.972;2023-04-01T11:57:42;11.50;99.90
1878;DHT22;939;51.426;6.972;2023-04-01T12:03:37;11.50;99.90
1878;DHT22;939;51.426;6.972;2023-04-01T12:06:13;11.50;99.90
1878;DHT22;939;51.426;6.972;2023-04-01T12:08:46;11.50;99.90
1878;DHT22;939;51.426;6.972;2023-04-01T12:11:45;11.60;99.90
1878;DHT22;939;51.426;6.972;2023-04-01T12:14:21;11.50;99.90
1878;DHT22;939;51.426;6.972;2023-04-01T12:27:01;11.60;99.90
1878;DHT22;939;51.426;6.972;2023-04-01T12:32:44;11.50;99.90
1878;DHT22;939;51.426;6.972;2023-04-01T12:35:32;11.50;99.90
1878;DHT22;939;51.426;6.972;2023-04-01T12:41:52;11.40;99.90
1878;DHT22;939;51.426;6.972;2023-04-01T12:45:11;11.30;99.90
1878;DHT22;939;51.426;6.972;2023-04-01T12:58:52;11.40;99.90
1878;DHT22;939;51.426;6.972;2023-04-01T13:02:12;11.30;99.90
1878;DHT22;939;51.426;6.972;2023-04-01T13:05:41;11.30;99.90
1878;DHT22;939;51.426;6.972;2023-04-01T13:08:42;11.40;99.90
1878;DHT22;939;51.426;6.972;2023-04-01T13:12:08;11.40;99.90
1878;DHT22;939;51.426;6.972;2023-04-01T13:15:25;11.40;99.90
1878;DHT22;939;51.426;6.972;2023-04-01T13:18:16;11.50;99.90
1878;DHT22;939;51.426;6.972;2023-04-01T13:21:18;11.50;99.90
1878;DHT22;939;51.426;6.972;2023-04-01T13:24:04;11.50;99.90
1878;DHT22;939;51.426;6.972;2023-04-01T13:26:53;11.40;99.90
1878;DHT22;939;51.426;6.972;2023-04-01T13:29:40;11.40;99.90
1878;DHT22;939;51.426;6.972;2023-04-01T13:32:24;11.40;99.90
1878;DHT22;939;51.426;6.972;2023-04-01T13:35:23;11.50;99.90
1878;DHT22;939;51.426;6.972;2023-04-01T13:38:31;11.50;99.90
1878;DHT22;939;51.426;6.972;2023-04-01T13:41:25;11.40;99.90
1878;DHT22;939;51.426;6.972;2023-04-01T13:44:16;11.40;99.90
1878;DHT22;939;51.426;6.972;2023-04-01T13:55:02;11.40;99.90
1878;DHT22;939;51.426;6.972;2023-04-01T14:01:35;11.40;99.90
1878;DHT22;939;51.426;6.972;2023-04-01T14:08:54;11.40;99.90
1878;DHT22;939;51.426;6.972;2023-04-01T14:22:17;11.50;99.90
1878;DHT22;939;51.426;6.972;2023-04-01T14:29:34;11.40;99.90
1878;DHT22;939;51.426;6.972;2023-04-01T14:33:16;11.30;99.90
1878;DHT22;939;51.426;6.972;2023-04-01T14:36:33;11.40;99.90
1878;DHT22;939;51.426;6.972;2023-04-01T14:39:27;11.30;99.90
1878;DHT22;939;51.426;6.972;2023-04-01T14:43:51;11.30;99.90
1878;DHT22;939;51.426;6.972;2023-04-01T14:46:23;11.30;99.90
1878;DHT22;939;51.426;6.972;2023-04-01T14:49:15;11.30;99.90
1878;DHT22;939;51.426;6.972;2023-04-01T15:30:50;11.60;99.90
1878;DHT22;939;51.426;6.972;2023-04-01T15:34:17;11.50;99.90
1878;DHT22;939;51.426;6.972;2023-04-01T15:37:39;11.40;99.90
1878;DHT22;939;51.426;6.972;2023-04-01T15:40:51;11.40;99.90
1878;DHT22;939;51.426;6.972;2023-04-01T15:50:59;11.30;99.90
1878;DHT22;939;51.426;6.972;2023-04-01T15:57:20;11.40;99.90
1878;DHT22;939;51.426;6.972;2023-04-01T16:03:19;11.50;99.90
1878;DHT22;939;51.426;6.972;2023-04-01T16:06:08;11.50;99.90
1878;DHT22;939;51.426;6.972;2023-04-01T16:09:16;11.50;99.90
1878;DHT22;939;51.426;6.972;2023-04-01T16:12:07;11.60;99.90
1878;DHT22;939;51.426;6.972;2023-04-01T16:15:19;11.60;99.90
1878;DHT22;939;51.426;6.972;2023-04-01T16:18:16;11.60;99.90
1878;DHT22;939;51.426;6.972;2023-04-01T16:21:05;11.60;99.90
1878;DHT22;939;51.426;6.972;2023-04-01T16:23:37;11.60;99.90
1878;DHT22;939;51.426;6.972;2023-04-01T16:26:20;11.40;99.90
1878;DHT22;939;51.426;6.972;2023-04-01T16:28:57;11.50;99.90
1878;DHT22;939;51.426;6.972;2023-04-01T16:31:35;11.50;99.90
1878;DHT22;939;51.426;6.972;2023-04-01T16:34:29;11.40;99.90
1878;DHT22;939;51.426;6.972;2023-04-01T16:37:05;11.40;99.90
1878;DHT22;939;51.426;6.972;2023-04-01T16:39:37;11.50;99.90
1878;DHT22;939;51.426;6.972;2023-04-01T16:42:39;11.50;99.90
1878;DHT22;939;51.426;6.972;2023-04-01T16:45:32;11.50;99.90
1878;DHT22;939;51.426;6.972;2023-04-01T16:48:07;11.50;99.90
1878;DHT22;939;51.426;6.972;2023-04-01T16:50:52;11.50;99.90
1878;DHT22;939;51.426;6.972;2023-04-01T16:53:36;11.40;99.90
1878;DHT22;939;51.426;6.972;2023-04-01T16:56:11;11.40;99.90
1878;DHT22;939;51.426;6.972;2023-04-01T16:58:50;11.40;99.90
1878;DHT22;939;51.426;6.972;2023-04-01T17:01:47;11.30;99.90
1878;DHT22;939;51.426;6.972;2023-04-01T17:04:22;11.40;99.90
1878;DHT22;939;51.426;6.972;2023-04-01T17:06:53;11.40;99.90
1878;DHT22;939;51.426;6.972;2023-04-01T17:09:48;11.40;99.90
1878;DHT22;939;51.426;6.972;2023-04-01T17:12:22;11.40;99.90
1878;DHT22;939;51.426;6.972;2023-04-01T17:14:57;11.40;99.90
1878;DHT22;939;51.426;6.972;2023-04-01T17:17:35;11.40;99.90
1878;DHT22;939;51.426;6.972;2023-04-01T17:20:13;11.30;99.90
1878;DHT22;939;51.426;6.972;2023-04-01T17:22:46;11.30;99.90
1878;DHT22;939;51.426;6.972;2023-04-01T17:25:33;11.40;99.90
1878;DHT22;939;51.426;6.972;2023-04-01T17:28:11;11.40;99.90
1878;DHT22;939;51.426;6.972;2023-04-01T17:30:42;11.40;99.90
1878;DHT22;939;51.426;6.972;2023-04-01T17:33:36;11.40;99.90
1878;DHT22;939;51.426;6.972;2023-04-01T17:36:09;11.40;99.90
1878;DHT22;939;51.426;6.972;2023-04-01T17:38:54;11.40;99.90
1878;DHT22;939;51.426;6.972;2023-04-01T17:41:31;11.40;99.90
1878;DHT22;939;51.426;6.972;2023-04-01T17:44:11;11.40;99.90
1878;DHT22;939;51.426;6.972;2023-04-01T17:46:56;11.40;99.90
1878;DHT22;939;51.426;6.972;2023-04-01T17:49:31;11.40;99.90
1878;DHT22;939;51.426;6.972;2023-04-01T17:52:06;11.40;99.90
1878;DHT22;939;51.426;6.972;2023-04-01T17:54:37;11.40;99.90
1878;DHT22;939;51.426;6.972;2023-04-01T17:57:24;11.40;99.90
1878;DHT22;939;51.426;6.972;2023-04-01T18:00:01;11.40;99.90
1878;DHT22;939;51.426;6.972;2023-04-01T18:02:33;11.50;99.90
1878;DHT22;939;51.426;6.972;2023-04-01T18:05:26;11.40;99.90
1878;DHT22;939;51.426;6.972;2023-04-01T18:08:06;11.50;99.90
1878;DHT22;939;51.426;6.972;2023-04-01T18:10:43;11.50;99.90
1878;DHT22;939;51.426;6.972;2023-04-01T18:13:55;11.40;99.90
1878;DHT22;939;51.426;6.972;2023-04-01T18:16:49;11.40;99.90
1878;DHT22;939;51.426;6.972;2023-04-01T18:19:26;11.40;99.90
1878;DHT22;939;51.426;6.972;2023-04-01T18:21:58;11.30;99.90
1878;DHT22;939;51.426;6.972;2023-04-01T18:24:28;11.30;99.90
1878;DHT22;939;51.426;6.972;2023-04-01T18:27:07;11.40;99.90
1878;DHT22;939;51.426;6.972;2023-04-01T18:29:48;11.30;99.90
1878;DHT22;939;51.426;6.972;2023-04-01T18:32:25;11.40;99.90
1878;DHT22;939;51.426;6.972;2023-04-01T18:34:58;11.40;99.90
1878;DHT22;939;51.426;6.972;2023-04-01T18:37:30;11.40;99.90
1878;DHT22;939;51.426;6.972;2023-04-01T18:40:04;11.40;99.90
1878;DHT22;939;51.426;6.972;2023-04-01T18:42:43;11.40;99.90
1878;DHT22;939;51.426;6.972;2023-04-01T18:45:20;11.40;99.90
1878;DHT22;939;51.426;6.972;2023-04-01T18:48:00;11.40;99.90
1878;DHT22;939;51.426;6.972;2023-04-01T18:50:36;11.40;99.90
1878;DHT22;939;51.426;6.972;2023-04-01T18:53:13;11.30;99.90
1878;DHT22;939;51.426;6.972;2023-04-01T18:55:46;11.30;99.90
1878;DHT22;939;51.426;6.972;2023-04-01T18:58:24;11.30;99.90
1878;DHT22;939;51.426;6.972;2023-04-01T19:01:07;11.30;99.90
1878;DHT22;939;51.426;6.972;2023-04-01T19:03:43;11.40;99.90
1878;DHT22;939;51.426;6.972;2023-04-01T19:06:17;11.30;99.90
1878;DHT22;939;51.426;6.972;2023-04-01T19:08:45;11.20;99.90
1878;DHT22;939;51.426;6.972;2023-04-01T19:11:21;11.30;99.90
1878;DHT22;939;51.426;6.972;2023-04-01T19:13:57;11.30;99.90
1878;DHT22;939;51.426;6.972;2023-04-01T19:16:38;11.20;99.90
1878;DHT22;939;51.426;6.972;2023-04-01T19:22:03;11.20;99.90
1878;DHT22;939;51.426;6.972;2023-04-01T19:24:58;11.10;99.90
1878;DHT22;939;51.426;6.972;2023-04-01T19:27:34;11.20;99.90
1878;DHT22;939;51.426;6.972;2023-04-01T19:30:16;11.30;99.90
1878;DHT22;939;51.426;6.972;2023-04-01T19:32:52;11.40;99.90
1878;DHT22;939;51.426;6.972;2023-04-01T19:35:27;11.40;99.90
1878;DHT22;939;51.426;6.972;2023-04-01T19:37:59;11.40;99.90
1878;DHT22;939;51.426;6.972;2023-04-01T19:40:37;11.30;99.90
1878;DHT22;939;51.426;6.972;2023-04-01T19:43:13;11.20;99.90
1878;DHT22;939;51.426;6.972;2023-04-01T19:45:45;11.30;99.90
1878;DHT22;939;51.426;6.972;2023-04-01T19:48:32;11.30;99.90
1878;DHT22;939;51.426;6.972;2023-04-01T19:51:07;11.40;99.90
1878;DHT22;939;51.426;6.972;2023-04-01T19:53:40;11.40;99.90
1878;DHT22;939;51.426;6.972;2023-04-01T19:56:15;11.40;99.90
1878;DHT22;939;51.426;6.972;2023-04-01T19:58:46;11.40;99.90
1878;DHT22;939;51.426;6.972;2023-04-01T20:01:21;11.30;99.90
1878;DHT22;939;51.426;6.972;2023-04-01T20:03:54;11.30;99.90
1878;DHT22;939;51.426;6.972;2023-04-01T20:06:27;11.40;99.90
1878;DHT22;939;51.426;6.972;2023-04-01T20:09:11;11.40;99.90
1878;DHT22;939;51.426;6.972;2023-04-01T20:11:55;11.30;99.90
1878;DHT22;939;51.426;6.972;2023-04-01T20:14:32;11.20;99.90
1878;DHT22;939;51.426;6.972;2023-04-01T20:17:22;11.20;99.90
1878;DHT22;939;51.426;6.972;2023-04-01T20:19:57;11.10;99.90
1878;DHT22;939;51.426;6.972;2023-04-01T20:22:38;11.00;99.90
1878;DHT22;939;51.426;6.972;2023-04-01T20:25:22;11.00;99.90
1878;DHT22;939;51.426;6.972;2023-04-01T20:27:51;11.10;99.90
1878;DHT22;939;51.426;6.972;2023-04-01T20:30:46;10.90;99.90
1878;DHT22;939;51.426;6.972;2023-04-01T20:36:16;10.90;99.90
1878;DHT22;939;51.426;6.972;2023-04-01T20:39:23;11.00;99.90
1878;DHT22;939;51.426;6.972;2023-04-01T20:45:14;10.80;99.90
1878;DHT22;939;51.426;6.972;2023-04-01T20:47:55;10.80;99.90
1878;DHT22;939;51.426;6.972;2023-04-01T20:50:28;10.70;99.90
1878;DHT22;939;51.426;6.972;2023-04-01T20:53:05;10.60;99.90
1878;DHT22;939;51.426;6.972;2023-04-01T20:58:50;10.70;99.90
1878;DHT22;939;51.426;6.972;2023-04-01T21:04:23;10.60;99.90
1878;DHT22;939;51.426;6.972;2023-04-01T21:07:10;10.40;99.90
1878;DHT22;939;51.426;6.972;2023-04-01T21:09:52;10.50;99.90
1878;DHT22;939;51.426;6.972;2023-04-01T21:12:28;10.50;99.90
1878;DHT22;939;51.426;6.972;2023-04-01T21:15:11;10.40;99.90
1878;DHT22;939;51.426;6.972;2023-04-01T21:18:04;10.40;99.90
1878;DHT22;939;51.426;6.972;2023-04-01T21:21:12;10.30;99.90
1878;DHT22;939;51.426;6.972;2023-04-01T21:23:58;10.20;99.90
1878;DHT22;939;51.426;6.972;2023-04-01T21:26:50;10.20;99.90
1878;DHT22;939;51.426;6.972;2023-04-01T21:29:48;10.10;99.90
1878;DHT22;939;51.426;6.972;2023-04-01T21:32:35;10.10;99.90
1878;DHT22;939;51.426;6.972;2023-04-01T21:35:08;10.10;99.90
1878;DHT22;939;51.426;6.972;2023-04-01T21:40:17;10.10;99.90
1878;DHT22;939;51.426;6.972;2023-04-01T21:41:29;10.00;99.90
1878;DHT22;939;51.426;6.972;2023-04-01T21:50:55;9.80;99.90
1878;DHT22;939;51.426;6.972;2023-04-01T21:54:04;9.80;99.90
1878;DHT22;939;51.426;6.972;2023-04-01T21:57:12;9.70;99.90
1878;DHT22;939;51.426;6.972;2023-04-01T22:00:09;9.70;99.90
1878;DHT22;939;51.426;6.972;2023-04-01T22:05:48;9.70;99.90
1878;DHT22;939;51.426;6.972;2023-04-01T22:08:35;9.70;99.90
